createdAt,value
2018-01-16T00:00:41.397Z,0
2018-01-16T00:01:43.791Z,0
2018-01-16T00:02:46.197Z,0
2018-01-16T00:03:48.602Z,0
2018-01-16T00:04:51.004Z,0
2018-01-16T00:05:53.404Z,0
2018-01-16T00:06:55.815Z,0
2018-01-16T00:07:58.215Z,0
2018-01-16T00:09:00.626Z,0
2018-01-16T00:10:03.330Z,0
2018-01-16T00:11:05.729Z,0
2018-01-16T00:12:08.145Z,0
2018-01-16T00:13:10.539Z,0
2018-01-16T00:14:13.240Z,0
2018-01-16T00:15:15.926Z,0
2018-01-16T00:16:18.327Z,0
2018-01-16T00:17:20.725Z,0
2018-01-16T00:18:23.141Z,0
2018-01-16T00:19:25.548Z,0
2018-01-16T00:20:27.936Z,0
2018-01-16T00:21:30.634Z,0
2018-01-16T00:22:33.326Z,0
2018-01-16T00:23:35.739Z,0
2018-01-16T00:24:38.140Z,0
2018-01-16T00:25:40.548Z,0
2018-01-16T00:26:42.953Z,0
2018-01-16T00:27:45.362Z,0
2018-01-16T00:28:47.766Z,0
2018-01-16T00:29:50.163Z,0
2018-01-16T00:30:52.569Z,0
2018-01-16T00:31:54.974Z,0
2018-01-16T00:32:57.370Z,0
2018-01-16T00:34:00.101Z,0
2018-01-16T00:35:02.753Z,0
2018-01-16T00:36:05.730Z,0
2018-01-16T00:37:08.143Z,0
2018-01-16T00:38:10.544Z,0
2018-01-16T00:39:12.951Z,0
2018-01-16T00:40:15.354Z,0
2018-01-16T00:41:17.765Z,0
2018-01-16T00:42:20.153Z,0
2018-01-16T00:43:22.853Z,0
2018-01-16T00:44:25.260Z,0
2018-01-16T00:45:27.954Z,0
2018-01-16T00:46:30.368Z,0
2018-01-16T00:47:32.772Z,0
2018-01-16T00:48:35.177Z,0
2018-01-16T00:49:37.580Z,0
2018-01-16T00:50:39.995Z,0
2018-01-16T00:51:42.404Z,0
2018-01-16T00:52:44.804Z,0
2018-01-16T00:53:47.228Z,0
2018-01-16T00:54:49.913Z,0
2018-01-16T00:55:52.325Z,0
2018-01-16T00:56:54.727Z,0
2018-01-16T00:57:57.132Z,0
2018-01-16T00:58:59.529Z,0
2018-01-16T01:00:01.942Z,0
2018-01-16T01:01:04.340Z,0
2018-01-16T01:02:07.048Z,0
2018-01-16T01:03:09.456Z,0
2018-01-16T01:04:11.857Z,0
2018-01-16T01:05:14.267Z,0
2018-01-16T01:06:16.667Z,0
2018-01-16T01:07:19.074Z,0
2018-01-16T01:08:21.498Z,0
2018-01-16T01:09:23.902Z,0
2018-01-16T01:10:26.304Z,0
2018-01-16T01:11:28.990Z,0
2018-01-16T01:12:31.396Z,0
2018-01-16T01:13:33.802Z,0
2018-01-16T01:14:36.209Z,0
2018-01-16T01:15:38.614Z,0
2018-01-16T01:16:41.026Z,0
2018-01-16T01:17:43.438Z,0
2018-01-16T01:18:45.835Z,0
2018-01-16T01:19:48.246Z,0
2018-01-16T01:20:50.652Z,0
2018-01-16T01:21:53.345Z,0
2018-01-16T01:22:55.748Z,0
2018-01-16T01:23:58.156Z,0
2018-01-16T01:25:00.560Z,0
2018-01-16T01:26:02.975Z,0
2018-01-16T01:27:05.369Z,0
2018-01-16T01:28:07.781Z,0
2018-01-16T01:29:10.188Z,0
2018-01-16T01:30:12.600Z,0
2018-01-16T01:31:15.282Z,0
2018-01-16T01:32:17.705Z,0
2018-01-16T01:33:20.104Z,0
2018-01-16T01:34:22.507Z,0
2018-01-16T01:35:24.918Z,0
2018-01-16T01:36:27.317Z,0
2018-01-16T01:37:29.728Z,0
2018-01-16T01:38:32.137Z,0
2018-01-16T01:39:34.532Z,0
2018-01-16T01:40:36.947Z,0
2018-01-16T01:41:39.350Z,0
2018-01-16T01:42:41.765Z,0
2018-01-16T01:43:44.172Z,0
2018-01-16T01:44:46.579Z,0
2018-01-16T01:45:48.993Z,0
2018-01-16T01:46:51.404Z,0
2018-01-16T01:47:53.813Z,0
2018-01-16T01:48:56.229Z,0
2018-01-16T01:49:58.626Z,0
2018-01-16T01:51:01.035Z,0
2018-01-16T01:52:03.442Z,0
2018-01-16T01:53:05.841Z,0
2018-01-16T01:54:08.249Z,0
2018-01-16T01:55:10.657Z,0
2018-01-16T01:56:13.076Z,0
2018-01-16T01:57:15.481Z,0
2018-01-16T01:58:17.882Z,0
2018-01-16T01:59:20.289Z,0
2018-01-16T02:00:23.013Z,0
2018-01-16T02:01:25.412Z,0
2018-01-16T02:02:27.820Z,0
2018-01-16T02:03:30.514Z,0
2018-01-16T02:04:32.920Z,0
2018-01-16T02:05:35.606Z,0
2018-01-16T02:06:38.004Z,0
2018-01-16T02:07:40.423Z,0
2018-01-16T02:08:42.826Z,0
2018-01-16T02:09:45.237Z,0
2018-01-16T02:10:47.646Z,0
2018-01-16T02:11:50.048Z,0
2018-01-16T02:12:52.464Z,0
2018-01-16T02:13:54.875Z,0
2018-01-16T02:14:57.557Z,0
2018-01-16T02:15:59.974Z,0
2018-01-16T02:17:02.651Z,0
2018-01-16T02:18:05.065Z,0
2018-01-16T02:19:07.475Z,0
2018-01-16T02:20:09.886Z,0
2018-01-16T02:21:12.299Z,0
2018-01-16T02:22:14.988Z,0
2018-01-16T02:23:17.660Z,0
2018-01-16T02:24:20.084Z,0
2018-01-16T02:25:22.487Z,0
2018-01-16T02:26:24.886Z,0
2018-01-16T02:27:27.302Z,0
2018-01-16T02:28:29.714Z,0
2018-01-16T02:29:32.123Z,0
2018-01-16T02:30:34.808Z,0
2018-01-16T02:31:37.232Z,0
2018-01-16T02:32:39.920Z,0
2018-01-16T02:33:42.602Z,0
2018-01-16T02:34:45.011Z,0
2018-01-16T02:35:47.423Z,0
2018-01-16T02:36:49.836Z,0
2018-01-16T02:37:52.247Z,0
2018-01-16T02:38:55.243Z,0
2018-01-16T02:39:57.931Z,0
2018-01-16T02:41:00.348Z,0
2018-01-16T02:42:02.758Z,0
2018-01-16T02:43:05.155Z,0
2018-01-16T02:44:07.565Z,0
2018-01-16T02:45:10.250Z,0
2018-01-16T02:46:12.660Z,0
2018-01-16T02:47:15.071Z,0
2018-01-16T02:48:17.754Z,0
2018-01-16T02:49:20.449Z,0
2018-01-16T02:50:22.870Z,0
2018-01-16T02:51:25.275Z,0
2018-01-16T02:52:27.676Z,0
2018-01-16T02:53:30.381Z,0
2018-01-16T02:54:32.784Z,0
2018-01-16T02:55:35.478Z,0
2018-01-16T02:56:37.892Z,0
2018-01-16T02:57:40.283Z,0
2018-01-16T02:58:42.705Z,0
2018-01-16T02:59:45.109Z,0
2018-01-16T03:00:47.807Z,0
2018-01-16T03:01:50.217Z,0
2018-01-16T03:02:52.626Z,0
2018-01-16T03:03:55.033Z,0
2018-01-16T03:04:57.441Z,0
2018-01-16T03:05:59.856Z,0
2018-01-16T03:07:02.541Z,0
2018-01-16T03:08:04.960Z,0
2018-01-16T03:09:07.371Z,0
2018-01-16T03:10:09.778Z,0
2018-01-16T03:11:12.191Z,0
2018-01-16T03:12:14.597Z,0
2018-01-16T03:13:17.004Z,0
2018-01-16T03:14:19.429Z,0
2018-01-16T03:15:21.826Z,0
2018-01-16T03:16:24.230Z,0
2018-01-16T03:17:26.646Z,0
2018-01-16T03:18:29.056Z,0
2018-01-16T03:19:31.457Z,0
2018-01-16T03:20:33.878Z,0
2018-01-16T03:21:36.273Z,0
2018-01-16T03:22:38.693Z,0
2018-01-16T03:23:41.101Z,0
2018-01-16T03:24:43.508Z,0
2018-01-16T03:25:45.923Z,0
2018-01-16T03:26:48.328Z,0
2018-01-16T03:27:51.298Z,0
2018-01-16T03:28:53.705Z,0
2018-01-16T03:29:56.400Z,0
2018-01-16T03:30:59.089Z,0
2018-01-16T03:32:01.496Z,0
2018-01-16T03:33:03.916Z,0
2018-01-16T03:34:06.319Z,0
2018-01-16T03:35:08.724Z,0
2018-01-16T03:36:11.136Z,0
2018-01-16T03:37:13.548Z,0
2018-01-16T03:38:15.963Z,0
2018-01-16T03:39:18.369Z,0
2018-01-16T03:40:21.047Z,0
2018-01-16T03:41:23.460Z,0
2018-01-16T03:42:26.162Z,0
2018-01-16T03:43:28.575Z,0
2018-01-16T03:44:31.272Z,0
2018-01-16T03:45:33.661Z,0
2018-01-16T03:46:36.077Z,0
2018-01-16T03:47:38.499Z,0
2018-01-16T03:48:40.908Z,0
2018-01-16T03:49:43.888Z,0
2018-01-16T03:50:46.297Z,0
2018-01-16T03:51:48.712Z,0
2018-01-16T03:52:51.134Z,0
2018-01-16T03:53:53.542Z,0
2018-01-16T03:54:55.942Z,0
2018-01-16T03:55:58.357Z,0
2018-01-16T03:57:00.765Z,0
2018-01-16T03:58:03.460Z,0
2018-01-16T03:59:05.866Z,0
2018-01-16T04:00:08.277Z,0
2018-01-16T04:01:10.678Z,0
2018-01-16T04:02:13.088Z,0
2018-01-16T04:03:15.774Z,0
2018-01-16T04:04:18.188Z,0
2018-01-16T04:05:20.595Z,0
2018-01-16T04:06:22.995Z,0
2018-01-16T04:07:25.406Z,0
2018-01-16T04:08:27.818Z,0
2018-01-16T04:09:30.223Z,0
2018-01-16T04:10:32.641Z,0
2018-01-16T04:11:35.042Z,0
2018-01-16T04:12:37.454Z,0
2018-01-16T04:13:39.880Z,0
2018-01-16T04:14:42.283Z,0
2018-01-16T04:15:44.692Z,0
2018-01-16T04:16:47.112Z,0
2018-01-16T04:17:49.512Z,0
2018-01-16T04:18:51.935Z,0
2018-01-16T04:19:54.341Z,0
2018-01-16T04:20:56.739Z,0
2018-01-16T04:21:59.156Z,0
2018-01-16T04:23:01.557Z,0
2018-01-16T04:24:03.956Z,0
2018-01-16T04:25:06.371Z,0
2018-01-16T04:26:09.050Z,0
2018-01-16T04:27:11.458Z,0
2018-01-16T04:28:13.876Z,0
2018-01-16T04:29:16.275Z,0
2018-01-16T04:30:18.964Z,0
2018-01-16T04:31:21.371Z,0
2018-01-16T04:32:23.785Z,0
2018-01-16T04:33:26.188Z,0
2018-01-16T04:34:28.598Z,0
2018-01-16T04:35:31.006Z,0
2018-01-16T04:36:33.410Z,0
2018-01-16T04:37:35.836Z,0
2018-01-16T04:38:38.233Z,0
2018-01-16T04:39:40.646Z,0
2018-01-16T04:40:43.364Z,0
2018-01-16T04:41:45.773Z,0
2018-01-16T04:42:48.187Z,0
2018-01-16T04:43:50.882Z,0
2018-01-16T04:44:53.556Z,0
2018-01-16T04:45:55.970Z,0
2018-01-16T04:46:58.389Z,0
2018-01-16T04:48:01.091Z,0
2018-01-16T04:49:03.501Z,0
2018-01-16T04:50:05.912Z,0
2018-01-16T04:51:08.316Z,0
2018-01-16T04:52:10.728Z,0
2018-01-16T04:53:13.134Z,0
2018-01-16T04:54:15.546Z,0
2018-01-16T04:55:17.950Z,0
2018-01-16T04:56:20.368Z,0
2018-01-16T04:57:22.778Z,0
2018-01-16T04:58:25.184Z,0
2018-01-16T04:59:27.598Z,0
2018-01-16T05:00:30.024Z,0
2018-01-16T05:01:32.427Z,0
2018-01-16T05:02:34.840Z,0
2018-01-16T05:03:37.251Z,0
2018-01-16T05:04:39.663Z,0
2018-01-16T05:05:42.068Z,0
2018-01-16T05:06:44.760Z,0
2018-01-16T05:07:47.460Z,0
2018-01-16T05:08:49.888Z,0
2018-01-16T05:09:52.575Z,0
2018-01-16T05:10:55.274Z,0
2018-01-16T05:11:57.693Z,0
2018-01-16T05:13:00.097Z,0
2018-01-16T05:14:02.512Z,0
2018-01-16T05:15:04.924Z,0
2018-01-16T05:16:07.613Z,0
2018-01-16T05:17:10.017Z,0
2018-01-16T05:18:12.996Z,0
2018-01-16T05:19:15.406Z,0
2018-01-16T05:20:17.800Z,0
2018-01-16T05:21:20.218Z,0
2018-01-16T05:22:22.618Z,0
2018-01-16T05:23:25.319Z,0
2018-01-16T05:24:27.729Z,0
2018-01-16T05:25:30.139Z,0
2018-01-16T05:26:32.549Z,0
2018-01-16T05:27:34.965Z,0
2018-01-16T05:28:37.655Z,0
2018-01-16T05:29:40.062Z,0
2018-01-16T05:30:42.474Z,0
2018-01-16T05:31:44.882Z,0
2018-01-16T05:32:47.287Z,0
2018-01-16T05:33:49.694Z,0
2018-01-16T05:34:52.114Z,0
2018-01-16T05:35:54.508Z,0
2018-01-16T05:36:56.922Z,0
2018-01-16T05:37:59.333Z,0
2018-01-16T05:39:01.750Z,0
2018-01-16T05:40:04.439Z,0
2018-01-16T05:41:07.134Z,0
2018-01-16T05:42:09.534Z,0
2018-01-16T05:43:11.954Z,0
2018-01-16T05:44:14.351Z,0
2018-01-16T05:45:16.771Z,0
2018-01-16T05:46:19.173Z,0
2018-01-16T05:47:21.585Z,0
2018-01-16T05:48:23.993Z,0
2018-01-16T05:49:26.396Z,0
2018-01-16T05:50:28.811Z,0
2018-01-16T05:51:31.230Z,0
2018-01-16T05:52:33.665Z,0
2018-01-16T05:53:36.053Z,0
2018-01-16T05:54:38.463Z,0
2018-01-16T05:55:40.883Z,0
2018-01-16T05:56:43.300Z,0
2018-01-16T05:57:45.998Z,0
2018-01-16T05:58:48.414Z,0
2018-01-16T05:59:50.825Z,0
2018-01-16T06:00:53.226Z,0
2018-01-16T06:01:55.916Z,0
2018-01-16T06:02:58.613Z,0
2018-01-16T06:04:01.302Z,0
2018-01-16T06:05:03.712Z,0
2018-01-16T06:06:06.118Z,0
2018-01-16T06:07:08.533Z,0
2018-01-16T06:08:10.957Z,0
2018-01-16T06:09:13.362Z,0
2018-01-16T06:10:15.768Z,0
2018-01-16T06:11:18.176Z,0
2018-01-16T06:12:20.586Z,0
2018-01-16T06:13:22.994Z,0
2018-01-16T06:14:25.407Z,0
2018-01-16T06:15:27.816Z,0
2018-01-16T06:16:30.819Z,0
2018-01-16T06:17:33.516Z,0
2018-01-16T06:18:35.927Z,0
2018-01-16T06:19:38.606Z,0
2018-01-16T06:20:41.016Z,0
2018-01-16T06:21:43.426Z,0
2018-01-16T06:22:45.832Z,0
2018-01-16T06:23:48.242Z,0
2018-01-16T06:24:50.935Z,0
2018-01-16T06:25:53.630Z,0
2018-01-16T06:26:56.049Z,0
2018-01-16T06:27:58.458Z,0
2018-01-16T06:29:01.167Z,0
2018-01-16T06:30:03.872Z,0
2018-01-16T06:31:06.566Z,0
2018-01-16T06:32:08.975Z,0
2018-01-16T06:33:11.388Z,0
2018-01-16T06:34:13.795Z,0
2018-01-16T06:35:16.209Z,0
2018-01-16T06:36:18.610Z,0
2018-01-16T06:37:21.024Z,0
2018-01-16T06:38:23.424Z,0
2018-01-16T06:39:25.836Z,0
2018-01-16T06:40:28.240Z,0
2018-01-16T06:41:30.650Z,0
2018-01-16T06:42:33.070Z,0
2018-01-16T06:43:35.467Z,0
2018-01-16T06:44:37.881Z,0
2018-01-16T06:45:40.293Z,0
2018-01-16T06:46:42.710Z,0
2018-01-16T06:47:45.400Z,0
2018-01-16T06:48:47.817Z,0
2018-01-16T06:49:50.221Z,0
2018-01-16T06:50:52.634Z,0
2018-01-16T06:51:55.046Z,0
2018-01-16T06:52:57.446Z,0
2018-01-16T06:53:59.858Z,0
2018-01-16T06:55:02.848Z,0
2018-01-16T06:56:05.253Z,0
2018-01-16T06:57:07.666Z,0
2018-01-16T06:58:10.059Z,0
2018-01-16T06:59:12.473Z,0
2018-01-16T07:00:15.173Z,0
2018-01-16T07:01:17.584Z,0
2018-01-16T07:02:19.992Z,0
2018-01-16T07:03:22.403Z,0
2018-01-16T07:04:24.806Z,0
2018-01-16T07:05:27.221Z,0
2018-01-16T07:06:29.629Z,0
2018-01-16T07:07:32.043Z,0
2018-01-16T07:08:34.448Z,0
2018-01-16T07:09:36.865Z,0
2018-01-16T07:10:39.278Z,0
2018-01-16T07:11:41.687Z,0
2018-01-16T07:12:44.098Z,0
2018-01-16T07:13:46.513Z,0
2018-01-16T07:14:49.208Z,0
2018-01-16T07:15:51.621Z,0
2018-01-16T07:16:54.063Z,0
2018-01-16T07:17:56.435Z,0
2018-01-16T07:18:58.849Z,0
2018-01-16T07:20:01.568Z,1
2018-01-16T07:21:03.974Z,1
2018-01-16T07:22:06.661Z,1
2018-01-16T07:23:09.062Z,1
2018-01-16T07:24:11.494Z,1
2018-01-16T07:25:13.898Z,1
2018-01-16T07:26:16.296Z,1
2018-01-16T07:27:18.712Z,1
2018-01-16T07:28:21.125Z,2
2018-01-16T07:29:23.528Z,2
2018-01-16T07:30:25.932Z,2
2018-01-16T07:31:28.356Z,2
2018-01-16T07:32:31.046Z,1
2018-01-16T07:33:33.450Z,1
2018-01-16T07:34:36.140Z,1
2018-01-16T07:35:38.543Z,1
2018-01-16T07:36:40.949Z,1
2018-01-16T07:37:43.366Z,1
2018-01-16T07:38:45.772Z,2
2018-01-16T07:39:48.181Z,3
2018-01-16T07:40:50.602Z,3
2018-01-16T07:41:53.010Z,4
2018-01-16T07:42:55.704Z,5
2018-01-16T07:43:58.114Z,5
2018-01-16T07:45:00.814Z,6
2018-01-16T07:46:03.223Z,5
2018-01-16T07:47:05.642Z,5
2018-01-16T07:48:08.319Z,6
2018-01-16T07:49:10.737Z,6
2018-01-16T07:50:13.430Z,7
2018-01-16T07:51:16.117Z,8
2018-01-16T07:52:18.528Z,8
2018-01-16T07:53:20.942Z,9
2018-01-16T07:54:23.347Z,9
2018-01-16T07:55:25.756Z,10
2018-01-16T07:56:28.171Z,11
2018-01-16T07:57:30.858Z,13
2018-01-16T07:58:33.273Z,13
2018-01-16T07:59:35.675Z,13
2018-01-16T08:00:38.088Z,14
2018-01-16T08:01:40.496Z,16
2018-01-16T08:02:42.901Z,17
2018-01-16T08:03:45.305Z,18
2018-01-16T08:04:47.732Z,20
2018-01-16T08:05:50.136Z,21
2018-01-16T08:06:52.548Z,21
2018-01-16T08:07:54.956Z,18
2018-01-16T08:08:57.652Z,17
2018-01-16T08:10:00.069Z,15
2018-01-16T08:11:02.763Z,13
2018-01-16T08:12:05.176Z,14
2018-01-16T08:13:07.587Z,12
2018-01-16T08:14:10.003Z,11
2018-01-16T08:15:12.410Z,9
2018-01-16T08:16:14.814Z,8
2018-01-16T08:17:17.225Z,8
2018-01-16T08:18:19.635Z,8
2018-01-16T08:19:22.043Z,9
2018-01-16T08:20:25.302Z,9
2018-01-16T08:21:27.698Z,10
2018-01-16T08:22:30.111Z,10
2018-01-16T08:23:32.532Z,7
2018-01-16T08:24:34.928Z,10
2018-01-16T08:25:37.340Z,16
2018-01-16T08:26:40.321Z,17
2018-01-16T08:27:42.736Z,18
2018-01-16T08:28:45.133Z,18
2018-01-16T08:29:47.554Z,15
2018-01-16T08:30:49.972Z,17
2018-01-16T08:31:52.371Z,19
2018-01-16T08:32:54.784Z,20
2018-01-16T08:33:57.473Z,20
2018-01-16T08:34:59.882Z,20
2018-01-16T08:36:02.302Z,20
2018-01-16T08:37:04.987Z,19
2018-01-16T08:38:07.400Z,21
2018-01-16T08:39:09.813Z,19
2018-01-16T08:40:12.224Z,18
2018-01-16T08:41:14.629Z,17
2018-01-16T08:42:17.330Z,17
2018-01-16T08:43:19.738Z,17
2018-01-16T08:44:22.145Z,16
2018-01-16T08:45:24.574Z,17
2018-01-16T08:46:27.014Z,17
2018-01-16T08:47:29.419Z,17
2018-01-16T08:48:31.840Z,18
2018-01-16T08:49:34.241Z,16
2018-01-16T08:50:36.658Z,15
2018-01-16T08:51:39.069Z,15
2018-01-16T08:52:41.487Z,15
2018-01-16T08:53:43.898Z,15
2018-01-16T08:54:46.315Z,16
2018-01-16T08:55:48.719Z,18
2018-01-16T08:56:51.137Z,21
2018-01-16T08:57:53.543Z,25
2018-01-16T08:58:55.948Z,27
2018-01-16T08:59:58.360Z,29
2018-01-16T09:01:00.771Z,34
2018-01-16T09:02:03.182Z,33
2018-01-16T09:03:05.605Z,38
2018-01-16T09:04:07.997Z,36
2018-01-16T09:05:10.414Z,41
2018-01-16T09:06:12.822Z,41
2018-01-16T09:07:15.230Z,44
2018-01-16T09:08:17.639Z,42
2018-01-16T09:09:20.044Z,42
2018-01-16T09:10:22.488Z,47
2018-01-16T09:11:24.951Z,44
2018-01-16T09:12:27.353Z,42
2018-01-16T09:13:29.865Z,39
2018-01-16T09:14:32.375Z,37
2018-01-16T09:15:34.881Z,38
2018-01-16T09:16:37.349Z,39
2018-01-16T09:17:39.892Z,34
2018-01-16T09:18:43.055Z,28
2018-01-16T09:19:45.679Z,25
2018-01-16T09:20:48.908Z,25
2018-01-16T09:21:51.673Z,25
2018-01-16T09:22:54.082Z,27
2018-01-16T09:23:56.505Z,30
2018-01-16T09:24:58.921Z,32
2018-01-16T09:26:01.450Z,35
2018-01-16T09:27:03.903Z,36
2018-01-16T09:28:06.388Z,41
2018-01-16T09:29:08.847Z,44
2018-01-16T09:30:11.692Z,48
2018-01-16T09:31:14.122Z,50
2018-01-16T09:32:16.537Z,53
2018-01-16T09:33:18.974Z,52
2018-01-16T09:34:21.383Z,44
2018-01-16T09:35:24.064Z,41
2018-01-16T09:36:26.478Z,40
2018-01-16T09:37:29.186Z,39
2018-01-16T09:38:31.876Z,34
2018-01-16T09:39:34.287Z,37
2018-01-16T09:40:36.717Z,38
2018-01-16T09:41:39.143Z,43
2018-01-16T09:42:41.557Z,45
2018-01-16T09:43:44.282Z,47
2018-01-16T09:44:46.692Z,46
2018-01-16T09:45:49.123Z,48
2018-01-16T09:46:51.570Z,47
2018-01-16T09:47:53.993Z,44
2018-01-16T09:48:56.715Z,41
2018-01-16T09:49:59.148Z,36
2018-01-16T09:51:01.582Z,34
2018-01-16T09:52:04.597Z,31
2018-01-16T09:53:07.029Z,30
2018-01-16T09:54:09.456Z,32
2018-01-16T09:55:11.884Z,34
2018-01-16T09:56:14.411Z,32
2018-01-16T09:57:16.866Z,33
2018-01-16T09:58:19.297Z,29
2018-01-16T09:59:22.018Z,25
2018-01-16T10:00:24.446Z,22
2018-01-16T10:01:26.880Z,16
2018-01-16T10:02:29.318Z,13
2018-01-16T10:03:31.733Z,14
2018-01-16T10:04:34.156Z,13
2018-01-16T10:05:36.580Z,13
2018-01-16T10:06:39.043Z,14
2018-01-16T10:07:41.515Z,15
2018-01-16T10:08:43.892Z,15
2018-01-16T10:09:46.298Z,17
2018-01-16T10:10:48.720Z,18
2018-01-16T10:11:51.128Z,22
2018-01-16T10:12:54.107Z,20
2018-01-16T10:13:56.514Z,19
2018-01-16T10:14:59.200Z,21
2018-01-16T10:16:01.618Z,24
2018-01-16T10:17:04.039Z,25
2018-01-16T10:18:06.721Z,19
2018-01-16T10:19:09.418Z,18
2018-01-16T10:20:11.829Z,21
2018-01-16T10:21:14.523Z,23
2018-01-16T10:22:17.220Z,20
2018-01-16T10:23:19.639Z,16
2018-01-16T10:24:22.045Z,15
2018-01-16T10:25:24.456Z,14
2018-01-16T10:26:27.156Z,14
2018-01-16T10:27:29.578Z,17
2018-01-16T10:28:31.983Z,14
2018-01-16T10:29:34.389Z,14
2018-01-16T10:30:37.085Z,15
2018-01-16T10:31:39.501Z,18
2018-01-16T10:32:41.906Z,18
2018-01-16T10:33:44.608Z,18
2018-01-16T10:34:47.014Z,20
2018-01-16T10:35:49.431Z,25
2018-01-16T10:36:51.847Z,27
2018-01-16T10:37:54.259Z,25
2018-01-16T10:38:56.662Z,24
2018-01-16T10:39:59.354Z,27
2018-01-16T10:41:01.762Z,32
2018-01-16T10:42:04.192Z,36
2018-01-16T10:43:06.882Z,39
2018-01-16T10:44:09.574Z,39
2018-01-16T10:45:11.991Z,34
2018-01-16T10:46:14.400Z,29
2018-01-16T10:47:16.810Z,24
2018-01-16T10:48:19.227Z,29
2018-01-16T10:49:21.632Z,33
2018-01-16T10:50:24.049Z,34
2018-01-16T10:51:26.458Z,32
2018-01-16T10:52:28.880Z,36
2018-01-16T10:53:31.292Z,36
2018-01-16T10:54:33.704Z,26
2018-01-16T10:55:36.117Z,31
2018-01-16T10:56:38.523Z,40
2018-01-16T10:57:40.938Z,51
2018-01-16T10:58:43.351Z,47
2018-01-16T10:59:46.044Z,38
2018-01-16T11:00:48.471Z,34
2018-01-16T11:01:50.873Z,34
2018-01-16T11:02:53.647Z,30
2018-01-16T11:03:56.090Z,31
2018-01-16T11:04:58.513Z,36
2018-01-16T11:06:01.515Z,33
2018-01-16T11:07:03.932Z,33
2018-01-16T11:08:06.337Z,27
2018-01-16T11:09:08.750Z,25
2018-01-16T11:10:11.168Z,22
2018-01-16T11:11:13.582Z,19
2018-01-16T11:12:16.008Z,25
2018-01-16T11:13:18.421Z,25
2018-01-16T11:14:20.837Z,32
2018-01-16T11:15:23.253Z,33
2018-01-16T11:16:25.660Z,31
2018-01-16T11:17:28.077Z,33
2018-01-16T11:18:30.483Z,36
2018-01-16T11:19:32.893Z,49
2018-01-16T11:20:35.298Z,55
2018-01-16T11:21:37.713Z,55
2018-01-16T11:22:40.115Z,56
2018-01-16T11:23:42.536Z,59
2018-01-16T11:24:44.947Z,76
2018-01-16T11:25:47.353Z,81
2018-01-16T11:26:50.052Z,71
2018-01-16T11:27:52.457Z,66
2018-01-16T11:28:54.865Z,59
2018-01-16T11:29:57.281Z,51
2018-01-16T11:30:59.685Z,51
2018-01-16T11:32:02.103Z,45
2018-01-16T11:33:04.520Z,47
2018-01-16T11:34:07.228Z,38
2018-01-16T11:35:09.650Z,36
2018-01-16T11:36:12.048Z,30
2018-01-16T11:37:14.460Z,36
2018-01-16T11:38:17.150Z,36
2018-01-16T11:39:20.141Z,32
2018-01-16T11:40:22.836Z,28
2018-01-16T11:41:25.248Z,22
2018-01-16T11:42:27.652Z,24
2018-01-16T11:43:30.061Z,29
2018-01-16T11:44:32.754Z,37
2018-01-16T11:45:35.161Z,37
2018-01-16T11:46:37.572Z,33
2018-01-16T11:47:39.986Z,46
2018-01-16T11:48:42.398Z,36
2018-01-16T11:49:44.815Z,25
2018-01-16T11:50:47.215Z,27
2018-01-16T11:51:49.634Z,24
2018-01-16T11:52:52.040Z,26
2018-01-16T11:53:54.451Z,29
2018-01-16T11:54:56.860Z,23
2018-01-16T11:55:59.267Z,22
2018-01-16T11:57:01.685Z,20
2018-01-16T11:58:04.380Z,19
2018-01-16T11:59:07.095Z,21
2018-01-16T12:00:09.810Z,21
2018-01-16T12:01:12.211Z,22
2018-01-16T12:02:14.915Z,20
2018-01-16T12:03:17.605Z,21
2018-01-16T12:04:20.020Z,21
2018-01-16T12:05:22.425Z,21
2018-01-16T12:06:24.848Z,24
2018-01-16T12:07:27.252Z,28
2018-01-16T12:08:29.665Z,29
2018-01-16T12:09:32.070Z,30
2018-01-16T12:10:34.476Z,28
2018-01-16T12:11:36.896Z,32
2018-01-16T12:12:39.301Z,35
2018-01-16T12:13:41.713Z,38
2018-01-16T12:14:44.135Z,36
2018-01-16T12:15:46.538Z,36
2018-01-16T12:16:48.953Z,36
2018-01-16T12:17:51.365Z,31
2018-01-16T12:18:53.778Z,32
2018-01-16T12:19:56.468Z,35
2018-01-16T12:20:58.886Z,35
2018-01-16T12:22:01.566Z,38
2018-01-16T12:23:03.982Z,37
2018-01-16T12:24:06.414Z,45
2018-01-16T12:25:08.819Z,49
2018-01-16T12:26:11.219Z,57
2018-01-16T12:27:13.630Z,56
2018-01-16T12:28:16.043Z,50
2018-01-16T12:29:18.464Z,40
2018-01-16T12:30:20.879Z,30
2018-01-16T12:31:23.281Z,28
2018-01-16T12:32:25.692Z,30
2018-01-16T12:33:28.114Z,34
2018-01-16T12:34:30.526Z,34
2018-01-16T12:35:32.933Z,29
2018-01-16T12:36:35.637Z,27
2018-01-16T12:37:38.039Z,32
2018-01-16T12:38:40.457Z,28
2018-01-16T12:39:42.889Z,27
2018-01-16T12:40:45.319Z,26
2018-01-16T12:41:47.754Z,27
2018-01-16T12:42:50.185Z,25
2018-01-16T12:43:52.895Z,21
2018-01-16T12:44:55.337Z,17
2018-01-16T12:45:57.760Z,15
2018-01-16T12:47:00.194Z,15
2018-01-16T12:48:02.634Z,20
2018-01-16T12:49:05.637Z,20
2018-01-16T12:50:08.633Z,20
2018-01-16T12:51:11.064Z,17
2018-01-16T12:52:13.486Z,15
2018-01-16T12:53:15.926Z,15
2018-01-16T12:54:18.342Z,16
2018-01-16T12:55:20.783Z,12
2018-01-16T12:56:23.500Z,12
2018-01-16T12:57:25.927Z,12
2018-01-16T12:58:28.350Z,12
2018-01-16T12:59:30.760Z,15
2018-01-16T13:00:33.171Z,17
2018-01-16T13:01:35.587Z,19
2018-01-16T13:02:37.990Z,18
2018-01-16T13:03:40.683Z,18
2018-01-16T13:04:43.092Z,20
2018-01-16T13:05:45.516Z,21
2018-01-16T13:06:48.226Z,17
2018-01-16T13:07:50.650Z,17
2018-01-16T13:08:53.087Z,15
2018-01-16T13:09:55.838Z,13
2018-01-16T13:10:58.288Z,12
2018-01-16T13:12:01.005Z,10
2018-01-16T13:13:03.419Z,10
2018-01-16T13:14:05.845Z,11
2018-01-16T13:15:08.277Z,11
2018-01-16T13:16:10.736Z,11
2018-01-16T13:17:13.147Z,11
2018-01-16T13:18:15.564Z,10
2018-01-16T13:19:18.274Z,10
2018-01-16T13:20:20.703Z,9
2018-01-16T13:21:23.121Z,8
2018-01-16T13:22:25.552Z,9
2018-01-16T13:23:27.971Z,9
2018-01-16T13:24:30.385Z,9
2018-01-16T13:25:32.800Z,9
2018-01-16T13:26:35.223Z,10
2018-01-16T13:27:37.629Z,11
2018-01-16T13:28:40.038Z,11
2018-01-16T13:29:42.456Z,13
2018-01-16T13:30:44.862Z,12
2018-01-16T13:31:47.858Z,10
2018-01-16T13:32:50.276Z,9
2018-01-16T13:33:52.963Z,8
2018-01-16T13:34:55.370Z,8
2018-01-16T13:35:57.788Z,7
2018-01-16T13:37:00.194Z,6
2018-01-16T13:38:02.921Z,8
2018-01-16T13:39:05.337Z,7
2018-01-16T13:40:07.738Z,8
2018-01-16T13:41:10.158Z,8
2018-01-16T13:42:12.575Z,7
2018-01-16T13:43:14.998Z,7
2018-01-16T13:44:17.443Z,8
2018-01-16T13:45:19.868Z,8
2018-01-16T13:46:22.285Z,8
2018-01-16T13:47:24.732Z,8
2018-01-16T13:48:27.444Z,10
2018-01-16T13:49:29.855Z,11
2018-01-16T13:50:32.281Z,9
2018-01-16T13:51:34.722Z,8
2018-01-16T13:52:37.146Z,8
2018-01-16T13:53:39.572Z,8
2018-01-16T13:54:42.031Z,8
2018-01-16T13:55:44.439Z,9
2018-01-16T13:56:46.845Z,10
2018-01-16T13:57:49.258Z,10
2018-01-16T13:58:51.671Z,11
2018-01-16T13:59:54.084Z,12
2018-01-16T14:00:56.499Z,12
2018-01-16T14:01:58.903Z,12
2018-01-16T14:03:01.599Z,11
2018-01-16T14:04:04.019Z,13
2018-01-16T14:05:06.430Z,13
2018-01-16T14:06:08.832Z,14
2018-01-16T14:07:11.249Z,15
2018-01-16T14:08:13.945Z,14
2018-01-16T14:09:16.362Z,13
2018-01-16T14:10:19.050Z,13
2018-01-16T14:11:21.455Z,12
2018-01-16T14:12:23.868Z,12
2018-01-16T14:13:26.573Z,10
2018-01-16T14:14:28.982Z,9
2018-01-16T14:15:31.389Z,7
2018-01-16T14:16:33.804Z,7
2018-01-16T14:17:36.215Z,8
2018-01-16T14:18:38.624Z,8
2018-01-16T14:19:41.043Z,7
2018-01-16T14:20:43.437Z,7
2018-01-16T14:21:46.144Z,7
2018-01-16T14:22:48.560Z,8
2018-01-16T14:23:50.969Z,9
2018-01-16T14:24:53.413Z,9
2018-01-16T14:25:56.042Z,9
2018-01-16T14:26:58.451Z,9
2018-01-16T14:28:01.124Z,7
2018-01-16T14:29:03.544Z,7
2018-01-16T14:30:06.245Z,7
2018-01-16T14:31:08.660Z,7
2018-01-16T14:32:11.077Z,7
2018-01-16T14:33:13.770Z,7
2018-01-16T14:34:16.462Z,6
2018-01-16T14:35:18.875Z,6
2018-01-16T14:36:21.276Z,6
2018-01-16T14:37:23.692Z,7
2018-01-16T14:38:26.100Z,7
2018-01-16T14:39:28.798Z,6
2018-01-16T14:40:31.201Z,6
2018-01-16T14:41:33.613Z,6
2018-01-16T14:42:36.025Z,6
2018-01-16T14:43:38.720Z,6
2018-01-16T14:44:41.407Z,7
2018-01-16T14:45:43.825Z,7
2018-01-16T14:46:46.244Z,7
2018-01-16T14:47:48.665Z,7
2018-01-16T14:48:51.076Z,6
2018-01-16T14:49:53.482Z,6
2018-01-16T14:50:55.895Z,6
2018-01-16T14:51:58.405Z,6
2018-01-16T14:53:00.867Z,6
2018-01-16T14:54:03.256Z,6
2018-01-16T14:55:05.667Z,5
2018-01-16T14:56:08.086Z,5
2018-01-16T14:57:10.496Z,5
2018-01-16T14:58:12.914Z,5
2018-01-16T14:59:15.324Z,5
2018-01-16T15:00:17.733Z,4
2018-01-16T15:01:20.159Z,4
2018-01-16T15:02:22.565Z,4
2018-01-16T15:03:25.252Z,3
2018-01-16T15:04:27.666Z,3
2018-01-16T15:05:30.076Z,3
2018-01-16T15:06:32.478Z,4
2018-01-16T15:07:34.893Z,4
2018-01-16T15:08:37.302Z,3
2018-01-16T15:09:39.721Z,3
2018-01-16T15:10:42.150Z,3
2018-01-16T15:11:44.554Z,3